sensor_id;sensor_type;location;lat;lon;timestamp;temperature;humidity
1329;DHT22;658;48.820;9.354;2023-05-15T00:00:28;23.60;50.40
1329;DHT22;658;48.820;9.354;2023-05-15T00:04:29;23.60;50.40
1329;DHT22;658;48.820;9.354;2023-05-15T00:08:29;23.60;50.30
1329;DHT22;658;48.820;9.354;2023-05-15T00:12:30;23.60;50.30
1329;DHT22;658;48.820;9.354;2023-05-15T00:16:31;23.60;50.30
1329;DHT22;658;48.820;9.354;2023-05-15T00:20:31;23.60;50.30
1329;DHT22;658;48.820;9.354;2023-05-15T00:24:33;23.60;50.40
1329;DHT22;658;48.820;9.354;2023-05-15T00:28:33;23.60;50.40
1329;DHT22;658;48.820;9.354;2023-05-15T00:32:34;23.50;50.30
1329;DHT22;658;48.820;9.354;2023-05-15T00:36:34;23.50;50.50
1329;DHT22;658;48.820;9.354;2023-05-15T00:40:36;23.50;50.30
1329;DHT22;658;48.820;9.354;2023-05-15T00:44:39;23.50;50.30
1329;DHT22;658;48.820;9.354;2023-05-15T00:48:41;23.50;50.50
1329;DHT22;658;48.820;9.354;2023-05-15T00:52:42;23.50;50.40
1329;DHT22;658;48.820;9.354;2023-05-15T00:56:45;23.50;50.50
1329;DHT22;658;48.820;9.354;2023-05-15T01:00:49;23.40;50.40
1329;DHT22;658;48.820;9.354;2023-05-15T01:04:52;23.50;50.50
1329;DHT22;658;48.820;9.354;2023-05-15T01:08:56;23.40;50.50
1329;DHT22;658;48.820;9.354;2023-05-15T01:12:58;23.40;50.40
1329;DHT22;658;48.820;9.354;2023-05-15T01:17:02;23.40;50.50
1329;DHT22;658;48.820;9.354;2023-05-15T01:29:26;23.30;50.40
1329;DHT22;658;48.820;9.354;2023-05-15T01:33:33;23.40;50.50
1329;DHT22;658;48.820;9.354;2023-05-15T01:37:43;23.30;50.40
1329;DHT22;658;48.820;9.354;2023-05-15T01:42:09;23.30;50.40
1329;DHT22;658;48.820;9.354;2023-05-15T01:46:13;23.30;50.40
1329;DHT22;658;48.820;9.354;2023-05-15T01:50:18;23.30;50.40
1329;DHT22;658;48.820;9.354;2023-05-15T01:54:20;23.30;50.40
1329;DHT22;658;48.820;9.354;2023-05-15T01:58:24;23.30;50.40
1329;DHT22;658;48.820;9.354;2023-05-15T02:02:26;23.30;50.40
1329;DHT22;658;48.820;9.354;2023-05-15T02:06:28;23.30;50.40
1329;DHT22;658;48.820;9.354;2023-05-15T02:10:30;23.30;50.40
1329;DHT22;658;48.820;9.354;2023-05-15T02:14:32;23.20;50.30
1329;DHT22;658;48.820;9.354;2023-05-15T02:18:33;23.20;50.40
1329;DHT22;658;48.820;9.354;2023-05-15T02:22:34;23.20;50.40
1329;DHT22;658;48.820;9.354;2023-05-15T02:26:35;23.20;50.30
1329;DHT22;658;48.820;9.354;2023-05-15T02:30:44;23.20;50.40
1329;DHT22;658;48.820;9.354;2023-05-15T02:34:57;23.20;50.40
1329;DHT22;658;48.820;9.354;2023-05-15T02:39:03;23.20;50.40
1329;DHT22;658;48.820;9.354;2023-05-15T02:43:05;23.20;50.40
1329;DHT22;658;48.820;9.354;2023-05-15T02:47:06;23.10;50.30
1329;DHT22;658;48.820;9.354;2023-05-15T02:51:07;23.20;50.40
1329;DHT22;658;48.820;9.354;2023-05-15T02:55:11;23.20;50.40
1329;DHT22;658;48.820;9.354;2023-05-15T02:59:11;23.00;50.20
1329;DHT22;658;48.820;9.354;2023-05-15T03:03:17;23.10;50.30
1329;DHT22;658;48.820;9.354;2023-05-15T03:07:18;23.10;50.20
1329;DHT22;658;48.820;9.354;2023-05-15T03:11:19;23.10;50.30
1329;DHT22;658;48.820;9.354;2023-05-15T03:15:20;23.10;50.30
1329;DHT22;658;48.820;9.354;2023-05-15T03:19:21;23.10;50.30
1329;DHT22;658;48.820;9.354;2023-05-15T03:23:21;23.00;50.20
1329;DHT22;658;48.820;9.354;2023-05-15T03:27:22;23.00;50.20
1329;DHT22;658;48.820;9.354;2023-05-15T03:31:22;23.00;50.20
1329;DHT22;658;48.820;9.354;2023-05-15T03:35:23;23.00;50.10
1329;DHT22;658;48.820;9.354;2023-05-15T03:39:27;23.00;50.20
1329;DHT22;658;48.820;9.354;2023-05-15T03:43:30;23.00;50.20
1329;DHT22;658;48.820;9.354;2023-05-15T03:47:31;23.00;50.10
1329;DHT22;658;48.820;9.354;2023-05-15T03:51:31;23.00;50.10
1329;DHT22;658;48.820;9.354;2023-05-15T03:55:32;23.00;50.10
1329;DHT22;658;48.820;9.354;2023-05-15T03:59:35;23.00;50.20
1329;DHT22;658;48.820;9.354;2023-05-15T04:03:35;23.00;50.10
1329;DHT22;658;48.820;9.354;2023-05-15T04:07:36;23.00;50.20
1329;DHT22;658;48.820;9.354;2023-05-15T04:11:37;22.90;50.10
1329;DHT22;658;48.820;9.354;2023-05-15T04:15:40;23.00;50.20
1329;DHT22;658;48.820;9.354;2023-05-15T04:19:40;22.90;50.10
1329;DHT22;658;48.820;9.354;2023-05-15T04:23:41;22.90;50.10
1329;DHT22;658;48.820;9.354;2023-05-15T04:27:42;22.90;50.10
1329;DHT22;658;48.820;9.354;2023-05-15T04:31:43;22.90;50.10
1329;DHT22;658;48.820;9.354;2023-05-15T04:35:43;22.90;50.10
1329;DHT22;658;48.820;9.354;2023-05-15T04:39:47;22.90;50.00
1329;DHT22;658;48.820;9.354;2023-05-15T04:43:47;22.90;50.00
1329;DHT22;658;48.820;9.354;2023-05-15T04:47:48;22.90;50.00
1329;DHT22;658;48.820;9.354;2023-05-15T04:51:49;23.00;50.10
1329;DHT22;658;48.820;9.354;2023-05-15T04:55:49;23.00;50.00
1329;DHT22;658;48.820;9.354;2023-05-15T04:59:50;23.00;50.00
1329;DHT22;658;48.820;9.354;2023-05-15T05:03:51;23.00;49.90
1329;DHT22;658;48.820;9.354;2023-05-15T05:07:52;23.00;49.90
1329;DHT22;658;48.820;9.354;2023-05-15T05:11:52;23.10;49.90
1329;DHT22;658;48.820;9.354;2023-05-15T05:15:53;23.10;49.80
1329;DHT22;658;48.820;9.354;2023-05-15T05:19:53;23.10;49.70
1329;DHT22;658;48.820;9.354;2023-05-15T05:23:54;23.10;49.70
1329;DHT22;658;48.820;9.354;2023-05-15T05:27:55;23.10;49.70
1329;DHT22;658;48.820;9.354;2023-05-15T05:31:56;23.10;49.70
1329;DHT22;658;48.820;9.354;2023-05-15T05:35:56;23.20;49.80
1329;DHT22;658;48.820;9.354;2023-05-15T05:39:59;23.20;49.70
1329;DHT22;658;48.820;9.354;2023-05-15T05:44:00;23.20;49.70
1329;DHT22;658;48.820;9.354;2023-05-15T05:48:00;23.20;50.10
1329;DHT22;658;48.820;9.354;2023-05-15T05:52:07;23.20;50.10
1329;DHT22;658;48.820;9.354;2023-05-15T05:56:08;23.30;50.10
1329;DHT22;658;48.820;9.354;2023-05-15T06:00:10;23.30;50.00
1329;DHT22;658;48.820;9.354;2023-05-15T06:04:13;23.40;50.00
1329;DHT22;658;48.820;9.354;2023-05-15T06:08:14;23.40;50.00
1329;DHT22;658;48.820;9.354;2023-05-15T06:12:15;23.40;49.80
1329;DHT22;658;48.820;9.354;2023-05-15T06:16:16;23.50;49.90
1329;DHT22;658;48.820;9.354;2023-05-15T06:20:16;23.50;49.70
1329;DHT22;658;48.820;9.354;2023-05-15T06:24:17;23.50;49.70
1329;DHT22;658;48.820;9.354;2023-05-15T06:28:18;23.50;49.70
1329;DHT22;658;48.820;9.354;2023-05-15T06:32:19;23.50;49.70
1329;DHT22;658;48.820;9.354;2023-05-15T06:36:19;23.60;49.70
1329;DHT22;658;48.820;9.354;2023-05-15T06:40:22;23.60;49.60
1329;DHT22;658;48.820;9.354;2023-05-15T06:44:23;23.60;49.60
1329;DHT22;658;48.820;9.354;2023-05-15T06:48:23;23.60;49.50
1329;DHT22;658;48.820;9.354;2023-05-15T06:52:24;23.70;49.60
1329;DHT22;658;48.820;9.354;2023-05-15T06:56:27;23.70;49.40
1329;DHT22;658;48.820;9.354;2023-05-15T07:00:27;23.70;49.40
1329;DHT22;658;48.820;9.354;2023-05-15T07:04:28;23.70;49.50
1329;DHT22;658;48.820;9.354;2023-05-15T07:08:30;23.80;49.70
1329;DHT22;658;48.820;9.354;2023-05-15T07:12:30;23.80;49.50
1329;DHT22;658;48.820;9.354;2023-05-15T07:16:32;23.90;49.50
1329;DHT22;658;48.820;9.354;2023-05-15T07:20:32;23.90;49.40
1329;DHT22;658;48.820;9.354;2023-05-15T07:24:33;24.00;49.40
1329;DHT22;658;48.820;9.354;2023-05-15T07:28:34;24.00;49.40
1329;DHT22;658;48.820;9.354;2023-05-15T07:32:34;24.10;49.40
1329;DHT22;658;48.820;9.354;2023-05-15T07:36:37;24.10;49.60
1329;DHT22;658;48.820;9.354;2023-05-15T07:40:38;24.20;49.20
1329;DHT22;658;48.820;9.354;2023-05-15T07:44:38;24.30;49.20
1329;DHT22;658;48.820;9.354;2023-05-15T07:48:39;24.30;49.20
1329;DHT22;658;48.820;9.354;2023-05-15T07:52:40;24.30;49.00
1329;DHT22;658;48.820;9.354;2023-05-15T07:56:43;24.30;49.20
1329;DHT22;658;48.820;9.354;2023-05-15T08:00:43;24.40;49.10
1329;DHT22;658;48.820;9.354;2023-05-15T08:04:44;24.40;49.00
1329;DHT22;658;48.820;9.354;2023-05-15T08:08:44;24.40;49.00
1329;DHT22;658;48.820;9.354;2023-05-15T08:12:45;24.40;49.00
1329;DHT22;658;48.820;9.354;2023-05-15T08:16:48;24.40;49.00
1329;DHT22;658;48.820;9.354;2023-05-15T08:20:49;24.40;49.50
1329;DHT22;658;48.820;9.354;2023-05-15T08:24:53;24.40;49.00
1329;DHT22;658;48.820;9.354;2023-05-15T08:28:54;24.50;49.00
1329;DHT22;658;48.820;9.354;2023-05-15T08:32:55;24.50;48.80
1329;DHT22;658;48.820;9.354;2023-05-15T08:36:56;24.50;48.80
1329;DHT22;658;48.820;9.354;2023-05-15T08:40:58;24.50;48.80
1329;DHT22;658;48.820;9.354;2023-05-15T08:45:01;24.60;48.90
1329;DHT22;658;48.820;9.354;2023-05-15T08:53:24;24.70;48.80
1329;DHT22;658;48.820;9.354;2023-05-15T08:57:25;24.70;48.70
1329;DHT22;658;48.820;9.354;2023-05-15T09:01:27;24.80;48.70
1329;DHT22;658;48.820;9.354;2023-05-15T09:05:30;24.80;48.60
1329;DHT22;658;48.820;9.354;2023-05-15T09:09:32;24.90;48.70
1329;DHT22;658;48.820;9.354;2023-05-15T09:13:33;24.90;48.50
1329;DHT22;658;48.820;9.354;2023-05-15T09:17:37;24.90;48.40
1329;DHT22;658;48.820;9.354;2023-05-15T09:21:45;24.90;48.60
1329;DHT22;658;48.820;9.354;2023-05-15T09:25:46;25.00;48.40
1329;DHT22;658;48.820;9.354;2023-05-15T09:29:52;25.00;48.40
1329;DHT22;658;48.820;9.354;2023-05-15T09:33:59;25.00;48.40
1329;DHT22;658;48.820;9.354;2023-05-15T09:38:09;25.10;48.20
1329;DHT22;658;48.820;9.354;2023-05-15T09:42:12;25.10;48.20
1329;DHT22;658;48.820;9.354;2023-05-15T09:46:13;25.20;48.10
1329;DHT22;658;48.820;9.354;2023-05-15T09:50:20;25.20;48.00
1329;DHT22;658;48.820;9.354;2023-05-15T09:54:22;25.30;48.00
1329;DHT22;658;48.820;9.354;2023-05-15T09:58:23;25.30;48.00
1329;DHT22;658;48.820;9.354;2023-05-15T10:02:27;25.30;47.90
1329;DHT22;658;48.820;9.354;2023-05-15T10:06:35;25.30;47.80
1329;DHT22;658;48.820;9.354;2023-05-15T10:10:36;25.30;47.80
1329;DHT22;658;48.820;9.354;2023-05-15T10:14:39;25.30;47.90
1329;DHT22;658;48.820;9.354;2023-05-15T10:18:40;25.30;48.00
1329;DHT22;658;48.820;9.354;2023-05-15T10:22:47;25.30;47.90
1329;DHT22;658;48.820;9.354;2023-05-15T10:26:51;25.30;47.80
1329;DHT22;658;48.820;9.354;2023-05-15T10:30:54;25.40;47.80
1329;DHT22;658;48.820;9.354;2023-05-15T10:34:57;25.40;47.70
1329;DHT22;658;48.820;9.354;2023-05-15T10:39:00;25.50;47.70
1329;DHT22;658;48.820;9.354;2023-05-15T10:43:04;25.50;47.50
1329;DHT22;658;48.820;9.354;2023-05-15T10:47:05;25.60;47.50
1329;DHT22;658;48.820;9.354;2023-05-15T10:51:37;25.60;47.50
1329;DHT22;658;48.820;9.354;2023-05-15T10:55:38;25.60;47.40
1329;DHT22;658;48.820;9.354;2023-05-15T10:59:40;25.60;47.30
1329;DHT22;658;48.820;9.354;2023-05-15T11:03:41;25.60;47.10
1329;DHT22;658;48.820;9.354;2023-05-15T11:12:25;25.80;47.00
1329;DHT22;658;48.820;9.354;2023-05-15T11:29:17;25.90;46.40
1329;DHT22;658;48.820;9.354;2023-05-15T11:33:19;26.00;46.40
1329;DHT22;658;48.820;9.354;2023-05-15T11:37:23;26.00;46.50
1329;DHT22;658;48.820;9.354;2023-05-15T11:41:30;26.10;46.20
1329;DHT22;658;48.820;9.354;2023-05-15T11:45:36;26.10;45.80
1329;DHT22;658;48.820;9.354;2023-05-15T11:49:37;26.20;45.80
1329;DHT22;658;48.820;9.354;2023-05-15T11:53:42;26.30;45.80
1329;DHT22;658;48.820;9.354;2023-05-15T11:57:45;26.30;45.80
1329;DHT22;658;48.820;9.354;2023-05-15T12:01:45;26.40;45.70
1329;DHT22;658;48.820;9.354;2023-05-15T12:05:49;26.40;45.40
1329;DHT22;658;48.820;9.354;2023-05-15T12:09:51;26.40;45.40
1329;DHT22;658;48.820;9.354;2023-05-15T12:13:54;26.40;45.20
1329;DHT22;658;48.820;9.354;2023-05-15T12:17:57;26.40;45.50
1329;DHT22;658;48.820;9.354;2023-05-15T12:22:06;26.40;45.50
1329;DHT22;658;48.820;9.354;2023-05-15T12:26:07;26.40;45.30
1329;DHT22;658;48.820;9.354;2023-05-15T12:30:09;26.50;45.30
1329;DHT22;658;48.820;9.354;2023-05-15T12:34:10;26.50;46.10
1329;DHT22;658;48.820;9.354;2023-05-15T12:38:14;26.40;45.50
1329;DHT22;658;48.820;9.354;2023-05-15T12:42:16;26.40;45.50
1329;DHT22;658;48.820;9.354;2023-05-15T12:46:22;26.40;45.70
1329;DHT22;658;48.820;9.354;2023-05-15T12:50:24;26.30;44.10
1329;DHT22;658;48.820;9.354;2023-05-15T12:54:26;26.10;42.40
1329;DHT22;658;48.820;9.354;2023-05-15T12:58:27;25.90;41.90
1329;DHT22;658;48.820;9.354;2023-05-15T13:02:28;25.90;41.40
1329;DHT22;658;48.820;9.354;2023-05-15T13:06:29;25.80;42.20
1329;DHT22;658;48.820;9.354;2023-05-15T13:10:32;25.80;43.20
1329;DHT22;658;48.820;9.354;2023-05-15T13:14:34;25.80;43.30
1329;DHT22;658;48.820;9.354;2023-05-15T13:18:34;25.80;43.40
1329;DHT22;658;48.820;9.354;2023-05-15T13:22:35;25.90;43.60
1329;DHT22;658;48.820;9.354;2023-05-15T13:26:35;25.90;43.70
1329;DHT22;658;48.820;9.354;2023-05-15T13:30:37;26.00;43.70
1329;DHT22;658;48.820;9.354;2023-05-15T13:34:41;26.00;44.00
1329;DHT22;658;48.820;9.354;2023-05-15T13:38:42;26.00;44.20
1329;DHT22;658;48.820;9.354;2023-05-15T13:42:43;26.00;44.30
1329;DHT22;658;48.820;9.354;2023-05-15T13:46:44;26.00;44.40
1329;DHT22;658;48.820;9.354;2023-05-15T13:50:45;26.10;44.50
1329;DHT22;658;48.820;9.354;2023-05-15T13:54:48;26.10;44.70
1329;DHT22;658;48.820;9.354;2023-05-15T13:58:49;26.10;44.80
1329;DHT22;658;48.820;9.354;2023-05-15T14:02:51;26.10;44.90
1329;DHT22;658;48.820;9.354;2023-05-15T14:06:52;26.20;44.90
1329;DHT22;658;48.820;9.354;2023-05-15T14:10:52;26.20;45.00
1329;DHT22;658;48.820;9.354;2023-05-15T14:14:53;26.20;45.00
1329;DHT22;658;48.820;9.354;2023-05-15T14:18:54;26.20;44.70
1329;DHT22;658;48.820;9.354;2023-05-15T14:22:55;26.20;45.00
1329;DHT22;658;48.820;9.354;2023-05-15T14:26:55;26.30;45.10
1329;DHT22;658;48.820;9.354;2023-05-15T14:30:56;26.30;45.00
1329;DHT22;658;48.820;9.354;2023-05-15T14:34:57;26.30;45.00
1329;DHT22;658;48.820;9.354;2023-05-15T14:38:59;26.30;45.10
1329;DHT22;658;48.820;9.354;2023-05-15T14:42:59;26.30;45.00
1329;DHT22;658;48.820;9.354;2023-05-15T14:47:08;26.30;45.00
1329;DHT22;658;48.820;9.354;2023-05-15T14:51:09;26.30;45.00
1329;DHT22;658;48.820;9.354;2023-05-15T14:55:10;26.30;45.00
1329;DHT22;658;48.820;9.354;2023-05-15T14:59:11;26.30;45.20
1329;DHT22;658;48.820;9.354;2023-05-15T15:03:13;26.30;45.20
1329;DHT22;658;48.820;9.354;2023-05-15T15:07:14;26.30;45.30
1329;DHT22;658;48.820;9.354;2023-05-15T15:11:15;26.40;45.40
1329;DHT22;658;48.820;9.354;2023-05-15T15:15:16;26.30;45.20
1329;DHT22;658;48.820;9.354;2023-05-15T15:19:19;26.30;45.30
1329;DHT22;658;48.820;9.354;2023-05-15T15:23:25;26.30;45.20
1329;DHT22;658;48.820;9.354;2023-05-15T15:27:25;26.20;45.20
1329;DHT22;658;48.820;9.354;2023-05-15T15:31:28;26.20;45.50
1329;DHT22;658;48.820;9.354;2023-05-15T15:35:29;26.20;45.40
1329;DHT22;658;48.820;9.354;2023-05-15T15:39:31;26.10;45.70
1329;DHT22;658;48.820;9.354;2023-05-15T15:43:32;26.00;46.10
1329;DHT22;658;48.820;9.354;2023-05-15T15:47:32;26.00;46.60
1329;DHT22;658;48.820;9.354;2023-05-15T15:51:33;26.00;46.50
1329;DHT22;658;48.820;9.354;2023-05-15T15:55:34;26.00;46.60
1329;DHT22;658;48.820;9.354;2023-05-15T15:59:34;26.00;46.50
1329;DHT22;658;48.820;9.354;2023-05-15T16:03:35;26.00;46.80
1329;DHT22;658;48.820;9.354;2023-05-15T16:07:38;26.00;47.00
1329;DHT22;658;48.820;9.354;2023-05-15T16:11:38;26.10;46.50
1329;DHT22;658;48.820;9.354;2023-05-15T16:15:39;26.00;46.50
1329;DHT22;658;48.820;9.354;2023-05-15T16:19:40;26.00;46.50
1329;DHT22;658;48.820;9.354;2023-05-15T16:23:40;26.00;46.80
1329;DHT22;658;48.820;9.354;2023-05-15T16:27:41;26.00;46.60
1329;DHT22;658;48.820;9.354;2023-05-15T16:31:42;26.00;46.60
1329;DHT22;658;48.820;9.354;2023-05-15T16:35:42;26.00;46.70
1329;DHT22;658;48.820;9.354;2023-05-15T16:39:43;26.00;46.60
1329;DHT22;658;48.820;9.354;2023-05-15T16:43:44;26.00;46.80
1329;DHT22;658;48.820;9.354;2023-05-15T16:47:44;25.90;46.90
1329;DHT22;658;48.820;9.354;2023-05-15T16:51:45;25.90;46.90
1329;DHT22;658;48.820;9.354;2023-05-15T16:55:46;25.90;46.90
1329;DHT22;658;48.820;9.354;2023-05-15T16:59:46;25.90;46.80
1329;DHT22;658;48.820;9.354;2023-05-15T17:03:47;25.90;47.30
1329;DHT22;658;48.820;9.354;2023-05-15T17:07:48;25.90;47.30
1329;DHT22;658;48.820;9.354;2023-05-15T17:11:48;25.90;47.30
1329;DHT22;658;48.820;9.354;2023-05-15T17:15:49;25.90;47.10
1329;DHT22;658;48.820;9.354;2023-05-15T17:19:53;25.80;47.00
1329;DHT22;658;48.820;9.354;2023-05-15T17:23:54;25.80;46.90
1329;DHT22;658;48.820;9.354;2023-05-15T17:27:55;25.80;46.90
1329;DHT22;658;48.820;9.354;2023-05-15T17:31:56;25.70;47.00
1329;DHT22;658;48.820;9.354;2023-05-15T17:35:56;25.70;47.00
1329;DHT22;658;48.820;9.354;2023-05-15T17:39:57;25.70;47.10
1329;DHT22;658;48.820;9.354;2023-05-15T17:43:57;25.70;47.20
1329;DHT22;658;48.820;9.354;2023-05-15T17:47:58;25.70;47.20
1329;DHT22;658;48.820;9.354;2023-05-15T17:52:03;25.70;47.00
1329;DHT22;658;48.820;9.354;2023-05-15T17:56:03;25.70;47.00
1329;DHT22;658;48.820;9.354;2023-05-15T18:00:05;25.70;46.80
1329;DHT22;658;48.820;9.354;2023-05-15T18:04:06;25.60;46.80
1329;DHT22;658;48.820;9.354;2023-05-15T18:08:07;25.60;46.70
1329;DHT22;658;48.820;9.354;2023-05-15T18:12:07;25.60;46.80
1329;DHT22;658;48.820;9.354;2023-05-15T18:16:08;25.60;46.80
1329;DHT22;658;48.820;9.354;2023-05-15T18:20:12;25.60;46.90
1329;DHT22;658;48.820;9.354;2023-05-15T18:24:12;25.50;46.80
1329;DHT22;658;48.820;9.354;2023-05-15T18:28:13;25.50;46.90
1329;DHT22;658;48.820;9.354;2023-05-15T18:32:16;25.50;46.90
1329;DHT22;658;48.820;9.354;2023-05-15T18:36:18;25.50;46.90
1329;DHT22;658;48.820;9.354;2023-05-15T18:40:19;25.40;46.90
1329;DHT22;658;48.820;9.354;2023-05-15T18:44:20;25.40;46.90
1329;DHT22;658;48.820;9.354;2023-05-15T18:48:21;25.40;46.90
1329;DHT22;658;48.820;9.354;2023-05-15T18:52:21;25.30;46.90
1329;DHT22;658;48.820;9.354;2023-05-15T18:56:22;25.30;46.90
1329;DHT22;658;48.820;9.354;2023-05-15T19:00:24;25.30;47.10
1329;DHT22;658;48.820;9.354;2023-05-15T19:04:24;25.30;47.10
1329;DHT22;658;48.820;9.354;2023-05-15T19:08:25;25.30;48.10
1329;DHT22;658;48.820;9.354;2023-05-15T19:12:26;25.30;47.90
1329;DHT22;658;48.820;9.354;2023-05-15T19:16:28;25.20;47.50
1329;DHT22;658;48.820;9.354;2023-05-15T19:20:28;25.10;47.60
1329;DHT22;658;48.820;9.354;2023-05-15T19:24:31;25.10;47.70
1329;DHT22;658;48.820;9.354;2023-05-15T19:28:32;25.10;47.70
1329;DHT22;658;48.820;9.354;2023-05-15T19:32:35;25.00;47.60
1329;DHT22;658;48.820;9.354;2023-05-15T19:36:36;25.00;47.70
1329;DHT22;658;48.820;9.354;2023-05-15T19:40:37;25.00;47.70
1329;DHT22;658;48.820;9.354;2023-05-15T19:44:37;25.00;47.70
1329;DHT22;658;48.820;9.354;2023-05-15T19:48:38;25.00;47.60
1329;DHT22;658;48.820;9.354;2023-05-15T19:52:39;25.00;47.60
1329;DHT22;658;48.820;9.354;2023-05-15T19:56:39;25.00;47.60
1329;DHT22;658;48.820;9.354;2023-05-15T20:00:40;25.00;47.60
1329;DHT22;658;48.820;9.354;2023-05-15T20:04:41;24.90;47.60
1329;DHT22;658;48.820;9.354;2023-05-15T20:08:41;24.90;47.70
1329;DHT22;658;48.820;9.354;2023-05-15T20:12:45;24.90;47.40
1329;DHT22;658;48.820;9.354;2023-05-15T20:16:48;24.80;47.80
1329;DHT22;658;48.820;9.354;2023-05-15T20:20:49;24.80;47.90
1329;DHT22;658;48.820;9.354;2023-05-15T20:24:52;24.80;47.90
1329;DHT22;658;48.820;9.354;2023-05-15T20:28:52;24.70;47.90
1329;DHT22;658;48.820;9.354;2023-05-15T20:32:53;24.70;47.90
1329;DHT22;658;48.820;9.354;2023-05-15T20:36:54;24.70;48.00
1329;DHT22;658;48.820;9.354;2023-05-15T20:40:55;24.60;47.90
1329;DHT22;658;48.820;9.354;2023-05-15T20:44:56;24.60;48.00
1329;DHT22;658;48.820;9.354;2023-05-15T20:48:57;24.60;47.90
1329;DHT22;658;48.820;9.354;2023-05-15T20:53:00;24.60;48.00
1329;DHT22;658;48.820;9.354;2023-05-15T20:57:01;24.60;48.00
1329;DHT22;658;48.820;9.354;2023-05-15T21:01:01;24.60;47.90
1329;DHT22;658;48.820;9.354;2023-05-15T21:05:02;24.60;47.90
1329;DHT22;658;48.820;9.354;2023-05-15T21:09:03;24.60;47.90
1329;DHT22;658;48.820;9.354;2023-05-15T21:13:04;24.60;47.90
1329;DHT22;658;48.820;9.354;2023-05-15T21:17:05;24.60;48.00
1329;DHT22;658;48.820;9.354;2023-05-15T21:21:06;24.60;48.00
1329;DHT22;658;48.820;9.354;2023-05-15T21:25:09;24.60;48.10
1329;DHT22;658;48.820;9.354;2023-05-15T21:29:10;24.50;48.00
1329;DHT22;658;48.820;9.354;2023-05-15T21:33:11;24.50;48.00
1329;DHT22;658;48.820;9.354;2023-05-15T21:37:13;24.50;48.10
1329;DHT22;658;48.820;9.354;2023-05-15T21:41:16;24.50;48.20
1329;DHT22;658;48.820;9.354;2023-05-15T21:45:18;24.40;48.10
1329;DHT22;658;48.820;9.354;2023-05-15T21:49:19;24.50;48.20
1329;DHT22;658;48.820;9.354;2023-05-15T21:53:23;24.40;48.20
1329;DHT22;658;48.820;9.354;2023-05-15T21:57:23;24.40;48.20
1329;DHT22;658;48.820;9.354;2023-05-15T22:01:24;24.40;48.30
1329;DHT22;658;48.820;9.354;2023-05-15T22:05:25;24.30;48.20
1329;DHT22;658;48.820;9.354;2023-05-15T22:09:25;24.30;48.20
1329;DHT22;658;48.820;9.354;2023-05-15T22:13:28;24.30;48.80
1329;DHT22;658;48.820;9.354;2023-05-15T22:17:31;24.30;48.30
1329;DHT22;658;48.820;9.354;2023-05-15T22:21:33;24.30;48.30
1329;DHT22;658;48.820;9.354;2023-05-15T22:25:34;24.20;48.20
1329;DHT22;658;48.820;9.354;2023-05-15T22:29:35;24.30;48.30
1329;DHT22;658;48.820;9.354;2023-05-15T22:33:35;24.20;48.30
1329;DHT22;658;48.820;9.354;2023-05-15T22:37:36;24.20;48.30
1329;DHT22;658;48.820;9.354;2023-05-15T22:41:36;24.20;48.30
1329;DHT22;658;48.820;9.354;2023-05-15T22:45:37;24.10;48.30
1329;DHT22;658;48.820;9.354;2023-05-15T22:49:37;24.10;48.30
1329;DHT22;658;48.820;9.354;2023-05-15T22:53:38;24.10;48.30
1329;DHT22;658;48.820;9.354;2023-05-15T22:57:39;24.10;48.30
1329;DHT22;658;48.820;9.354;2023-05-15T23:01:40;24.10;48.40
1329;DHT22;658;48.820;9.354;2023-05-15T23:05:40;24.00;48.30
1329;DHT22;658;48.820;9.354;2023-05-15T23:09:42;24.10;48.50
1329;DHT22;658;48.820;9.354;2023-05-15T23:13:42;24.00;48.40
1329;DHT22;658;48.820;9.354;2023-05-15T23:17:43;24.00;48.40
1329;DHT22;658;48.820;9.354;2023-05-15T23:21:43;24.00;48.40
1329;DHT22;658;48.820;9.354;2023-05-15T23:25:44;24.00;48.50
1329;DHT22;658;48.820;9.354;2023-05-15T23:29:45;24.00;48.50
1329;DHT22;658;48.820;9.354;2023-05-15T23:33:45;23.90;48.40
1329;DHT22;658;48.820;9.354;2023-05-15T23:37:46;23.90;48.40
1329;DHT22;658;48.820;9.354;2023-05-15T23:41:49;23.90;48.40
1329;DHT22;658;48.820;9.354;2023-05-15T23:45:50;23.90;48.50
1329;DHT22;658;48.820;9.354;2023-05-15T23:49:53;23.90;48.50
1329;DHT22;658;48.820;9.354;2023-05-15T23:53:54;23.80;48.40
1329;DHT22;658;48.820;9.354;2023-05-15T23:57:54;23.90;48.50
